Time;durP1;ratioP1;P1;durP2;ratioP2;P2;SDS_P1;SDS_P2;PMS_P1;PMS_P2;Temp;Humidity;BMP_temperature;BMP_pressure;BME280_temperature;BME280_humidity;BME280_pressure;Samples;Min_cycle;Max_cycle;Signal;HPM_P1;HPM_P2
2023/07/21 00:01:12;;;;;;;0.00;0.00;;;;;;;16.68;100.00;101246.75;5052734;28;20518;-49
2023/07/21 00:03:38;;;;;;;0.00;0.00;;;;;;;16.68;100.00;101249.47;5052605;28;20036;-46
2023/07/21 00:06:06;;;;;;;0.00;0.00;;;;;;;16.69;100.00;101250.28;5052595;28;20024;-46
2023/07/21 00:08:32;;;;;;;0.00;0.00;;;;;;;16.67;100.00;101246.97;5052847;28;20020;-45
2023/07/21 00:10:58;;;;;;;0.00;0.00;;;;;;;16.66;100.00;101248.00;5051193;28;20057;-49
2023/07/21 00:13:27;;;;;;;0.00;0.00;;;;;;;16.60;100.00;101246.97;5052609;28;20060;-47
2023/07/21 00:15:54;;;;;;;0.00;0.00;;;;;;;16.57;100.00;101250.13;5052260;28;20032;-48
2023/07/21 00:18:19;;;;;;;0.00;0.00;;;;;;;16.55;100.00;101243.22;5052618;28;20029;-45
2023/07/21 00:20:46;;;;;;;0.00;0.00;;;;;;;16.49;100.00;101244.06;5051022;28;20410;-44
2023/07/21 00:23:12;;;;;;;0.00;0.00;;;;;;;16.48;100.00;101247.81;5052360;28;20064;-48
2023/07/21 00:25:38;;;;;;;0.00;0.00;;;;;;;16.48;100.00;101247.81;5052349;28;20433;-46
2023/07/21 00:28:03;;;;;;;0.00;0.00;;;;;;;16.45;100.00;101244.47;5051180;28;20021;-44
2023/07/21 00:30:29;;;;;;;0.00;0.00;;;;;;;16.47;100.00;101241.56;5052237;28;20475;-47
2023/07/21 00:32:54;;;;;;;0.00;0.00;;;;;;;16.50;100.00;101241.13;5052229;28;20062;-48
2023/07/21 00:35:19;;;;;;;0.00;0.00;;;;;;;16.54;100.00;101241.56;5052110;28;20086;-48
2023/07/21 00:37:45;;;;;;;0.00;0.00;;;;;;;16.56;100.00;101245.75;5052219;28;20100;-50
2023/07/21 00:40:15;;;;;;;0.00;0.00;;;;;;;16.53;100.00;101232.53;5051889;28;20021;-47
2023/07/21 00:42:41;;;;;;;0.00;0.00;;;;;;;16.48;100.00;101226.09;5052140;28;20021;-47
2023/07/21 00:45:06;;;;;;;0.00;0.00;;;;;;;16.43;100.00;101219.41;5052012;28;20021;-48
2023/07/21 00:47:34;;;;;;;0.00;0.00;;;;;;;16.36;100.00;101218.59;5052428;28;20021;-49
2023/07/21 00:49:59;;;;;;;0.00;0.00;;;;;;;16.40;100.00;101219.84;5052457;28;20099;-49
2023/07/21 00:52:25;;;;;;;0.00;0.00;;;;;;;16.38;100.00;101213.78;5050605;28;20351;-48
2023/07/21 00:54:51;;;;;;;0.00;0.00;;;;;;;16.38;100.00;101218.38;5051042;28;20347;-46
2023/07/21 00:57:16;;;;;;;0.00;0.00;;;;;;;16.40;100.00;101219.84;5051940;28;20057;-48
2023/07/21 00:59:42;;;;;;;0.00;0.00;;;;;;;16.40;100.00;101214.41;5051695;28;20025;-47
2023/07/21 01:02:07;;;;;;;0.00;0.00;;;;;;;16.41;100.00;101212.53;5051752;28;20067;-49
2023/07/21 01:04:33;;;;;;;0.00;0.00;;;;;;;16.42;100.00;101216.91;5051852;28;20515;-47
2023/07/21 01:06:59;;;;;;;0.00;0.00;;;;;;;16.43;100.00;101207.72;5050487;28;20025;-50
2023/07/21 01:09:25;;;;;;;0.00;0.00;;;;;;;16.43;100.00;101211.28;5033797;28;20349;-48
2023/07/21 01:11:51;;;;;;;0.00;0.00;;;;;;;16.45;100.00;101209.16;5050438;28;20075;-49
2023/07/21 01:14:17;;;;;;;0.00;0.00;;;;;;;16.46;100.00;101202.69;5050404;28;20460;-46
2023/07/21 01:16:43;;;;;;;0.00;0.00;;;;;;;16.45;100.00;101201.00;5051314;28;20124;-47
2023/07/21 01:19:14;;;;;;;0.00;0.00;;;;;;;16.33;100.00;101186.41;5050495;28;20021;-47
2023/07/21 01:21:45;;;;;;;0.00;0.00;;;;;;;16.26;100.00;101191.00;5051437;28;20483;-50
2023/07/21 01:24:25;;;;;;;0.00;0.00;;;;;;;16.22;100.00;101185.19;5051315;28;20068;-50
2023/07/21 01:26:51;;;;;;;0.00;0.00;;;;;;;16.25;100.00;101194.78;5050086;28;20035;-47
2023/07/21 01:29:18;;;;;;;0.00;0.00;;;;;;;16.23;100.00;101191.44;5050207;28;20025;-46
2023/07/21 01:31:44;;;;;;;0.00;0.00;;;;;;;16.26;100.00;101190.19;5033595;28;20115;-49
2023/07/21 01:34:10;;;;;;;0.00;0.00;;;;;;;16.27;100.00;101200.00;5051358;28;20033;-47
2023/07/21 01:36:37;;;;;;;0.00;0.00;;;;;;;16.25;100.00;101202.94;5050012;28;20135;-48
2023/07/21 01:39:04;;;;;;;0.00;0.00;;;;;;;16.27;100.00;101198.09;5050107;28;20040;-47
2023/07/21 01:41:30;;;;;;;0.00;0.00;;;;;;;16.30;100.00;101200.44;5051415;28;20032;-47
2023/07/21 01:43:56;;;;;;;0.00;0.00;;;;;;;16.29;100.00;101193.31;5049829;28;20350;-48
2023/07/21 01:46:21;;;;;;;0.00;0.00;;;;;;;16.30;100.00;101197.72;5049724;28;20036;-48
2023/07/21 01:48:47;;;;;;;0.00;0.00;;;;;;;16.33;100.00;101201.88;5050995;28;20040;-46
2023/07/21 01:51:15;;;;;;;0.00;0.00;;;;;;;16.35;100.00;101203.34;5050821;28;20048;-49
2023/07/21 01:53:41;;;;;;;0.00;0.00;;;;;;;16.37;100.00;101197.69;5049589;28;20494;-48
2023/07/21 01:56:09;;;;;;;0.00;0.00;;;;;;;16.39;100.00;101201.03;5049454;28;20033;-49
2023/07/21 01:58:37;;;;;;;0.00;0.00;;;;;;;16.37;100.00;101194.97;5050928;28;20056;-46
2023/07/21 02:01:04;;;;;;;0.00;0.00;;;;;;;16.35;100.00;101194.34;5051179;28;20368;-47
2023/07/21 02:03:29;;;;;;;0.00;0.00;;;;;;;16.37;100.00;101186.81;5051262;28;20077;-47
2023/07/21 02:05:54;;;;;;;0.00;0.00;;;;;;;16.38;100.00;101177.66;5050039;28;20021;-46
2023/07/21 02:08:21;;;;;;;0.00;0.00;;;;;;;16.37;100.00;101184.94;5050960;28;20053;-45
2023/07/21 02:10:47;;;;;;;0.00;0.00;;;;;;;16.35;100.00;101178.91;5051229;28;20438;-46
2023/07/21 02:13:14;;;;;;;0.00;0.00;;;;;;;16.29;100.00;101182.44;5050657;28;20166;-44
2023/07/21 02:15:40;;;;;;;0.00;0.00;;;;;;;16.24;100.00;101182.25;5050841;28;20032;-45
2023/07/21 02:18:05;;;;;;;0.00;0.00;;;;;;;16.13;100.00;101180.16;5051199;28;20025;-47
2023/07/21 02:20:31;;;;;;;0.00;0.00;;;;;;;16.04;100.00;101176.03;5050961;28;20544;-46
2023/07/21 02:22:56;;;;;;;0.00;0.00;;;;;;;16.02;100.00;101174.31;5050651;28;20031;-46
2023/07/21 02:25:22;;;;;;;0.00;0.00;;;;;;;16.02;100.00;101174.31;5050727;28;20325;-44
2023/07/21 02:27:48;;;;;;;0.00;0.00;;;;;;;15.98;100.00;101169.53;5051123;28;20021;-49
2023/07/21 02:30:13;;;;;;;0.00;0.00;;;;;;;15.92;100.00;101173.91;5050932;28;20464;-43
2023/07/21 02:32:38;;;;;;;0.00;0.00;;;;;;;15.90;100.00;101184.13;5050795;28;20029;-48
2023/07/21 02:35:05;;;;;;;0.00;0.00;;;;;;;15.85;100.00;101183.97;5050761;28;20102;-47
2023/07/21 02:37:31;;;;;;;0.00;0.00;;;;;;;15.79;100.00;101173.91;5050507;28;20032;-49
2023/07/21 02:39:56;;;;;;;0.00;0.00;;;;;;;15.75;100.00;101180.81;5049930;28;20450;-48
2023/07/21 02:42:21;;;;;;;0.00;0.00;;;;;;;15.68;100.00;101188.06;5051764;28;20452;-45
2023/07/21 02:44:47;;;;;;;0.00;0.00;;;;;;;15.59;100.00;101185.56;5051924;28;20213;-48
2023/07/21 02:47:16;;;;;;;0.00;0.00;;;;;;;15.54;100.00;101184.50;5051801;28;20033;-47
2023/07/21 02:49:42;;;;;;;0.00;0.00;;;;;;;15.49;100.00;101190.56;5049275;28;20044;-50
2023/07/21 02:52:08;;;;;;;0.00;0.00;;;;;;;15.45;100.00;101183.03;5050694;28;20086;-47
2023/07/21 02:54:33;;;;;;;0.00;0.00;;;;;;;15.42;100.00;101183.44;5050551;28;20068;-47
2023/07/21 02:56:59;;;;;;;0.00;0.00;;;;;;;15.33;100.00;101183.63;5049176;28;20048;-47
2023/07/21 02:59:26;;;;;;;0.00;0.00;;;;;;;15.31;100.00;101176.75;5051638;28;20044;-47
2023/07/21 03:01:56;;;;;;;0.00;0.00;;;;;;;15.26;100.00;101181.94;5052963;28;20052;-45
2023/07/21 03:04:23;;;;;;;0.00;0.00;;;;;;;15.21;100.00;101176.28;5052688;28;20021;-43
2023/07/21 03:06:48;;;;;;;0.00;0.00;;;;;;;15.19;100.00;101186.50;5054012;28;20025;-46
2023/07/21 03:09:13;;;;;;;0.00;0.00;;;;;;;15.13;100.00;101180.84;5052735;28;20035;-48
2023/07/21 03:11:39;;;;;;;0.00;0.00;;;;;;;15.12;100.00;101175.66;5052739;28;20086;-47
2023/07/21 03:14:04;;;;;;;0.00;0.00;;;;;;;15.11;100.00;101172.13;5053849;28;20108;-46
2023/07/21 03:16:29;;;;;;;0.00;0.00;;;;;;;15.10;100.00;101164.16;5054010;28;20021;-48
2023/07/21 03:18:55;;;;;;;0.00;0.00;;;;;;;15.06;100.00;101163.75;5053865;28;20178;-46
2023/07/21 03:21:20;;;;;;;0.00;0.00;;;;;;;15.06;100.00;101163.75;5054308;28;20029;-46
2023/07/21 03:23:46;;;;;;;0.00;0.00;;;;;;;15.06;100.00;101162.91;5056026;28;20100;-47
2023/07/21 03:26:11;;;;;;;0.00;0.00;;;;;;;15.08;100.00;101166.25;5057094;28;20102;-46
2023/07/21 03:28:38;;;;;;;0.00;0.00;;;;;;;15.06;100.00;101152.91;5056601;28;20364;-44
2023/07/21 03:31:03;;;;;;;0.00;0.00;;;;;;;15.07;100.00;101160.00;5056281;28;20378;-48
2023/07/21 03:33:29;;;;;;;0.00;0.00;;;;;;;15.04;100.00;101157.69;5054130;28;20120;-50
2023/07/21 03:36:01;;;;;;;0.00;0.00;;;;;;;15.04;100.00;101154.16;5054093;28;20055;-45
2023/07/21 03:38:27;;;;;;;0.00;0.00;;;;;;;15.06;100.00;101158.34;5054175;28;20029;-44
2023/07/21 03:41:09;;;;;;;0.00;0.00;;;;;;;15.05;100.00;101153.09;5054002;28;20029;-47
2023/07/21 03:43:36;;;;;;;0.00;0.00;;;;;;;15.06;100.00;101158.34;5053880;28;20036;-47
2023/07/21 03:46:03;;;;;;;0.00;0.00;;;;;;;15.08;100.00;101163.53;5053513;28;20031;-48
2023/07/21 03:48:29;;;;;;;0.00;0.00;;;;;;;15.09;100.00;101157.91;5053532;28;20524;-48
2023/07/21 03:51:05;;;;;;;0.00;0.00;;;;;;;15.09;100.00;101162.50;5053549;28;20494;-47
2023/07/21 03:53:31;;;;;;;0.00;0.00;;;;;;;15.09;100.00;101152.50;5052051;28;20025;-45
2023/07/21 03:55:57;;;;;;;0.00;0.00;;;;;;;15.14;100.00;101149.19;5053654;28;20044;-49
2023/07/21 03:58:22;;;;;;;0.00;0.00;;;;;;;15.18;100.00;101145.00;5053236;28;20033;-47
2023/07/21 04:00:48;;;;;;;0.00;0.00;;;;;;;15.23;100.00;101152.53;5051870;28;20033;-47
2023/07/21 04:03:14;;;;;;;0.00;0.00;;;;;;;15.25;100.00;101158.59;5053322;28;20035;-47
2023/07/21 04:05:39;;;;;;;0.00;0.00;;;;;;;15.27;100.00;101156.47;5053375;28;20544;-48
2023/07/21 04:08:05;;;;;;;0.00;0.00;;;;;;;15.32;100.00;101156.72;5053200;28;20047;-49
2023/07/21 04:10:31;;;;;;;0.00;0.00;;;;;;;15.37;100.00;101156.94;5052981;28;20107;-50
2023/07/21 04:12:57;;;;;;;0.00;0.00;;;;;;;15.42;100.00;101157.16;5053918;28;20082;-45
2023/07/21 04:15:25;;;;;;;0.08;0.00;;;;;;;15.44;100.00;101155.06;5052813;28;20033;-45
2023/07/21 04:17:54;;;;;;;0.00;0.00;;;;;;;15.49;100.00;101158.00;5053811;28;20029;-46
2023/07/21 04:20:22;;;;;;;0.00;0.00;;;;;;;15.53;100.00;101151.13;5053584;28;20025;-48
2023/07/21 04:22:48;;;;;;;0.00;0.00;;;;;;;15.62;100.00;101143.63;5053521;28;20582;-46
2023/07/21 04:25:15;;;;;;;0.00;0.00;;;;;;;15.62;100.00;101138.19;5051865;28;20080;-48
2023/07/21 04:27:41;;;;;;;0.00;0.00;;;;;;;15.59;100.00;101136.72;5052834;28;20033;-46
2023/07/21 04:30:07;;;;;;;0.00;0.00;;;;;;;15.59;100.00;101125.03;5052626;28;20027;-47
2023/07/21 04:32:33;;;;;;;0.00;0.00;;;;;;;15.65;100.00;101128.81;5052812;28;20074;-49
2023/07/21 04:34:59;;;;;;;0.00;0.00;;;;;;;15.65;100.00;101123.38;5052689;28;20128;-49
2023/07/21 04:37:25;;;;;;;0.00;0.00;;;;;;;15.69;100.00;101124.66;5052503;28;20075;-50
2023/07/21 04:39:51;;;;;;;0.00;0.00;;;;;;;15.71;100.00;101128.81;5051210;28;20029;-47
2023/07/21 04:42:16;;;;;;;0.00;0.00;;;;;;;15.73;100.00;101128.63;5052316;28;20344;-50
2023/07/21 04:44:43;;;;;;;0.00;0.00;;;;;;;15.78;100.00;101128.84;5051076;28;20075;-46
2023/07/21 04:47:08;;;;;;;0.00;0.00;;;;;;;15.84;100.00;101127.97;5052711;28;20029;-45
2023/07/21 04:49:34;;;;;;;0.00;0.00;;;;;;;15.89;100.00;101130.91;5050909;28;20115;-51
2023/07/21 04:52:00;;;;;;;0.00;0.00;;;;;;;15.94;100.00;101128.41;5052350;28;20029;-50
2023/07/21 04:54:26;;;;;;;0.00;0.00;;;;;;;15.97;100.00;101122.53;5052220;28;20472;-45
2023/07/21 04:56:52;;;;;;;0.00;0.00;;;;;;;16.00;100.00;101116.69;5052102;28;20067;-49
2023/07/21 04:59:18;;;;;;;0.00;0.00;;;;;;;16.04;100.00;101110.84;5051888;28;20021;-45
2023/07/21 05:01:45;;;;;;;0.00;0.00;;;;;;;15.99;100.00;101115.03;5050578;28;20025;-45
2023/07/21 05:04:10;;;;;;;0.00;0.00;;;;;;;15.97;100.00;101124.44;5050535;28;20380;-46
2023/07/21 05:06:35;;;;;;;0.00;0.00;;;;;;;15.93;100.00;101126.75;5051950;28;20031;-46
2023/07/21 05:09:01;;;;;;;0.00;0.00;;;;;;;15.97;100.00;101121.72;5051868;28;20029;-48
2023/07/21 05:11:26;;;;;;;0.00;0.00;;;;;;;16.00;100.00;101121.28;5051785;28;20503;-50
2023/07/21 05:13:52;;;;;;;0.00;0.00;;;;;;;16.00;100.00;101122.13;5051628;28;20033;-47
2023/07/21 05:16:18;;;;;;;0.00;0.00;;;;;;;15.97;100.00;101125.25;5051811;28;20021;-45
2023/07/21 05:18:43;;;;;;;0.00;0.00;;;;;;;15.94;100.00;101133.00;5051580;28;20456;-47
2023/07/21 05:21:08;;;;;;;0.00;0.00;;;;;;;15.91;100.00;101130.72;5050117;28;20040;-46
2023/07/21 05:23:34;;;;;;;0.00;0.00;;;;;;;15.90;100.00;101131.72;5051450;28;20162;-46
2023/07/21 05:26:01;;;;;;;0.00;0.00;;;;;;;15.90;100.00;101120.88;5051011;28;20032;-50
2023/07/21 05:28:27;;;;;;;0.00;0.00;;;;;;;15.90;100.00;101123.59;5049653;28;20438;-47
2023/07/21 05:30:53;;;;;;;0.00;0.00;;;;;;;15.94;100.00;101112.09;5051705;28;20098;-49
2023/07/21 05:33:18;;;;;;;0.00;0.00;;;;;;;15.98;100.00;101116.09;5051463;28;20479;-47
2023/07/21 05:35:43;;;;;;;0.00;0.00;;;;;;;15.92;100.00;101106.06;5051201;28;20056;-48
2023/07/21 05:38:10;;;;;;;0.00;0.00;;;;;;;15.97;100.00;101108.13;5051355;28;20509;-49
2023/07/21 05:40:35;;;;;;;0.00;0.00;;;;;;;15.92;100.00;101113.38;5051432;28;20448;-49
2023/07/21 05:43:02;;;;;;;0.00;0.00;;;;;;;15.91;100.00;101112.53;5051484;28;20104;-47
2023/07/21 05:45:28;;;;;;;0.00;0.00;;;;;;;15.96;100.00;101109.19;5051470;28;20021;-45
2023/07/21 05:47:55;;;;;;;0.00;0.00;;;;;;;15.94;100.00;101101.25;5051245;28;20032;-48
2023/07/21 05:50:21;;;;;;;0.00;0.00;;;;;;;16.01;100.00;101103.97;5051526;28;20128;-48
2023/07/21 05:52:50;;;;;;;0.00;0.00;;;;;;;16.03;100.00;101104.56;5051734;28;20029;-47
2023/07/21 05:55:16;;;;;;;0.00;0.00;;;;;;;16.05;100.00;101107.09;5052775;28;20033;-44
2023/07/21 05:57:42;;;;;;;0.00;0.00;;;;;;;16.06;100.00;101103.31;5052582;28;20082;-45
2023/07/21 06:00:12;;;;;;;0.00;0.00;;;;;;;16.07;100.00;101107.72;5052654;28;20035;-44
2023/07/21 06:02:38;;;;;;;0.00;0.00;;;;;;;16.15;100.00;101108.31;5052759;28;20033;-47
2023/07/21 06:05:03;;;;;;;0.00;0.00;;;;;;;16.17;100.00;101108.94;5050554;28;20090;-47
2023/07/21 06:07:29;;;;;;;0.00;0.00;;;;;;;16.27;100.00;101104.94;5051966;28;20029;-43
2023/07/21 06:09:54;;;;;;;0.00;0.00;;;;;;;16.36;100.00;101104.50;5052839;28;20039;-48
2023/07/21 06:12:19;;;;;;;0.00;0.00;;;;;;;16.46;100.00;101104.88;5052038;28;20040;-46
2023/07/21 06:14:45;;;;;;;0.00;0.00;;;;;;;16.55;100.00;101104.66;5051935;28;20337;-46
2023/07/21 06:17:10;;;;;;;0.00;0.00;;;;;;;16.62;100.00;101098.13;5051772;28;20404;-44
2023/07/21 06:19:35;;;;;;;0.00;0.00;;;;;;;16.70;100.00;101098.94;5051637;28;20175;-47
2023/07/21 06:22:01;;;;;;;0.00;0.00;;;;;;;16.75;100.00;101099.97;5050062;28;20510;-47
2023/07/21 06:24:26;;;;;;;0.00;0.00;;;;;;;16.80;100.00;101099.34;5051342;28;20430;-44
2023/07/21 06:26:52;;;;;;;0.00;0.00;;;;;;;16.85;100.00;101094.94;5051667;28;20053;-43
2023/07/21 06:29:18;;;;;;;0.00;0.00;;;;;;;16.97;100.00;101094.22;5051793;28;20024;-45
2023/07/21 06:31:43;;;;;;;0.00;0.00;;;;;;;17.09;100.00;101095.22;5051370;28;20025;-47
2023/07/21 06:34:08;;;;;;;0.00;0.00;;;;;;;17.18;100.00;101103.94;5049740;28;20029;-45
2023/07/21 06:36:34;;;;;;;0.00;0.00;;;;;;;17.27;100.00;101092.59;5050700;28;20033;-47
2023/07/21 06:38:59;;;;;;;0.00;0.00;;;;;;;17.51;100.00;101095.53;5053057;28;20036;-48
2023/07/21 06:41:24;;;;;;;0.00;0.00;;;;;;;17.52;100.00;101087.13;5054402;28;20104;-45
2023/07/21 06:43:50;;;;;;;0.00;0.00;;;;;;;17.59;100.00;101087.09;5054910;28;20414;-47
2023/07/21 06:46:15;;;;;;;0.00;0.00;;;;;;;17.68;100.00;101088.47;5054527;28;20021;-49
2023/07/21 06:48:41;;;;;;;0.00;0.00;;;;;;;17.83;100.00;101087.34;5053619;28;20364;-48
2023/07/21 06:51:06;;;;;;;0.00;0.00;;;;;;;17.83;100.00;101081.91;5054337;28;20025;-50
2023/07/21 06:53:32;;;;;;;0.00;0.00;;;;;;;17.95;100.00;101080.91;5052883;28;20029;-48
2023/07/21 06:55:57;;;;;;;0.00;0.00;;;;;;;17.99;100.00;101086.75;5054202;28;20032;-49
2023/07/21 06:58:23;;;;;;;0.00;0.00;;;;;;;18.12;100.00;101085.78;5054552;28;20035;-46
2023/07/21 07:00:48;;;;;;;0.00;0.00;;;;;;;17.95;100.00;101070.00;5054557;28;20585;-49
2023/07/21 07:03:13;;;;;;;0.00;0.00;;;;;;;17.91;100.00;101073.44;5054333;28;20033;-50
2023/07/21 07:05:41;;;;;;;0.00;0.00;;;;;;;17.89;100.00;101065.47;5053437;28;20146;-47
2023/07/21 07:08:07;;;;;;;0.00;0.00;;;;;;;17.81;100.00;101070.38;5054423;28;20028;-43
2023/07/21 07:10:32;;;;;;;0.00;0.00;;;;;;;17.81;100.00;101062.22;5054881;28;20037;-44
2023/07/21 07:12:57;;;;;;;0.00;0.00;;;;;;;18.01;100.00;101073.75;5054202;28;20021;-45
2023/07/21 07:15:23;;;;;;;0.00;0.00;;;;;;;18.20;100.00;101067.25;5056992;28;20039;-44
2023/07/21 07:17:49;;;;;;;0.00;0.00;;;;;;;18.20;100.00;101061.78;5039398;28;20414;-47
2023/07/21 07:20:14;;;;;;;0.00;0.00;;;;;;;18.25;100.00;101063.03;5058076;28;20048;-47
2023/07/21 07:22:40;;;;;;;0.00;0.00;;;;;;;18.42;100.00;101058.59;5055528;28;20017;-44
2023/07/21 07:25:05;;;;;;;0.00;0.00;;;;;;;18.24;100.00;101061.34;5054468;28;20522;-46
2023/07/21 07:27:31;;;;;;;0.00;0.00;;;;;;;18.41;100.00;101067.84;5054782;28;20024;-45
2023/07/21 07:29:56;;;;;;;0.00;0.00;;;;;;;18.57;100.00;101060.94;5054353;28;20033;-46
2023/07/21 07:32:22;;;;;;;0.45;0.00;;;;;;;18.77;100.00;101066.13;5054642;28;20029;-46
2023/07/21 07:34:47;;;;;;;0.00;0.00;;;;;;;18.71;100.00;101056.13;5054939;28;20075;-45
2023/07/21 07:37:14;;;;;;;0.00;0.00;;;;;;;18.55;100.00;101052.97;5054424;28;20360;-46
2023/07/21 07:39:39;;;;;;;0.00;0.00;;;;;;;18.53;100.00;101055.09;5054688;28;20029;-45
2023/07/21 07:42:04;;;;;;;0.00;0.00;;;;;;;18.61;100.00;101057.50;5054840;28;20100;-46
2023/07/21 07:44:30;;;;;;;0.00;0.00;;;;;;;18.45;100.00;101055.41;5053517;28;20491;-46
2023/07/21 07:46:55;;;;;;;0.00;0.00;;;;;;;18.52;100.00;101056.16;5055482;28;20021;-46
2023/07/21 07:49:21;;;;;;;0.00;0.00;;;;;;;18.69;100.00;101050.91;5054110;28;20037;-45
2023/07/21 07:51:48;;;;;;;0.00;0.00;;;;;;;18.84;100.00;101054.06;5054251;28;20025;-47
2023/07/21 07:54:14;;;;;;;0.00;0.00;;;;;;;19.08;100.00;101054.97;5040898;28;20116;-47
2023/07/21 07:56:39;;;;;;;0.00;0.00;;;;;;;19.33;100.00;101053.16;5032389;28;20192;-45
2023/07/21 07:59:05;;;;;;;0.00;0.00;;;;;;;19.27;100.00;101055.75;5034003;28;20017;-46
2023/07/21 08:01:30;;;;;;;0.00;0.00;;;;;;;19.46;100.00;101056.50;5033335;28;20061;-50
2023/07/21 08:03:55;;;;;;;0.00;0.00;;;;;;;19.70;100.00;101053.81;5031876;28;20030;-47
2023/07/21 08:06:22;;;;;;;0.00;0.00;;;;;;;19.74;100.00;101049.50;5033450;28;20519;-48
2023/07/21 08:08:47;;;;;;;0.00;0.00;;;;;;;19.79;100.00;101046.91;5033002;28;20428;-49
2023/07/21 08:11:13;;;;;;;0.00;0.00;;;;;;;19.82;100.00;101057.34;5032947;28;20107;-47
2023/07/21 08:13:39;;;;;;;0.00;0.00;;;;;;;19.77;100.00;101049.03;5031282;28;20029;-47
2023/07/21 08:16:12;;;;;;;0.00;0.00;;;;;;;19.85;100.00;101048.72;5032920;28;20032;-47
2023/07/21 08:18:37;;;;;;;0.20;0.00;;;;;;;19.95;100.00;101051.63;5032801;28;20044;-46
2023/07/21 08:21:23;;;;;;;0.00;0.00;;;;;;;19.73;100.00;101058.78;5033020;28;20025;-48
2023/07/21 08:23:49;;;;;;;0.00;0.00;;;;;;;19.74;100.00;101057.72;5032533;28;20079;-47
2023/07/21 08:26:15;;;;;;;0.00;0.00;;;;;;;19.99;100.00;101059.38;5032192;28;20083;-45
2023/07/21 08:28:40;;;;;;;0.00;0.00;;;;;;;20.45;100.00;101055.69;5032357;28;20037;-48
2023/07/21 08:31:05;;;;;;;0.00;0.00;;;;;;;20.68;100.00;101065.75;5032815;28;20215;-44
2023/07/21 08:33:31;;;;;;;0.00;0.00;;;;;;;21.07;100.00;101057.75;5031298;28;20028;-47
2023/07/21 08:35:56;;;;;;;0.00;0.00;;;;;;;21.63;100.00;101058.69;5031618;28;20475;-47
2023/07/21 08:38:22;;;;;;;0.00;0.00;;;;;;;22.31;100.00;101055.84;5033002;28;20033;-49
2023/07/21 08:40:50;;;;;;;0.00;0.00;;;;;;;22.81;100.00;101059.44;5032933;28;20357;-46
2023/07/21 08:43:16;;;;;;;0.00;0.00;;;;;;;22.72;100.00;101050.81;5033003;28;20025;-47
2023/07/21 08:45:43;;;;;;;0.00;0.00;;;;;;;23.03;100.00;101053.91;5032877;28;20033;-47
2023/07/21 08:48:09;;;;;;;0.00;0.00;;;;;;;23.58;100.00;101047.22;5048012;28;20324;-45
2023/07/21 08:50:36;;;;;;;0.00;0.00;;;;;;;24.08;94.30;101045.91;5032142;28;20021;-47
2023/07/21 08:53:01;;;;;;;0.00;0.00;;;;;;;23.56;96.90;101049.41;5030905;28;20072;-48
2023/07/21 08:55:26;;;;;;;0.00;0.00;;;;;;;22.96;100.00;101049.47;5032091;28;20053;-48
2023/07/21 08:57:59;;;;;;;0.00;0.00;;;;;;;21.98;100.00;101056.72;5032067;28;20076;-49
2023/07/21 09:00:25;;;;;;;0.00;0.00;;;;;;;21.43;100.00;101051.00;5031750;28;20062;-48
2023/07/21 09:03:00;;;;;;;0.00;0.00;;;;;;;21.13;100.00;101058.66;5047235;28;20060;-51
2023/07/21 09:05:26;;;;;;;0.00;0.00;;;;;;;21.12;100.00;101049.63;5031995;28;20045;-48
2023/07/21 09:07:51;;;;;;;0.00;0.00;;;;;;;20.80;100.00;101057.50;5032045;28;20030;-44
2023/07/21 09:10:28;;;;;;;0.00;0.00;;;;;;;20.69;100.00;101051.00;5031716;28;20092;-45
2023/07/21 09:12:54;;;;;;;0.00;0.00;;;;;;;21.11;100.00;101047.13;5031874;28;20448;-50
2023/07/21 09:15:19;;;;;;;0.00;0.00;;;;;;;21.83;100.00;101043.66;5031695;28;20079;-45
2023/07/21 09:17:45;;;;;;;0.00;0.00;;;;;;;22.71;100.00;101054.66;5031945;28;20052;-46
2023/07/21 09:20:11;;;;;;;0.00;0.00;;;;;;;24.03;92.60;101052.22;5031735;28;20029;-46
2023/07/21 09:22:38;;;;;;;0.00;0.00;;;;;;;24.53;89.53;101047.22;5032320;28;20188;-48
2023/07/21 09:25:04;;;;;;;0.00;0.00;;;;;;;25.42;90.68;101053.44;5032143;28;20414;-46
2023/07/21 09:27:30;;;;;;;0.00;0.00;;;;;;;25.94;85.51;101060.56;5031259;28;20091;-44
2023/07/21 09:30:00;;;;;;;0.00;0.00;;;;;;;26.48;80.75;101053.47;5031534;28;20029;-47
2023/07/21 09:32:25;;;;;;;0.00;0.00;;;;;;;26.56;79.58;101055.66;5031536;28;20490;-49
2023/07/21 09:35:02;;;;;;;0.00;0.00;;;;;;;25.90;80.67;101055.88;5031356;28;20141;-46
2023/07/21 09:37:28;;;;;;;;;;;;;;;25.39;80.55;101059.50;5030768;28;20033;-44
2023/07/21 09:39:57;;;;;;;0.00;0.00;;;;;;;24.70;83.31;101061.59;5031161;28;19909;-46
2023/07/21 09:42:23;;;;;;;0.00;0.00;;;;;;;23.80;84.83;101061.72;5031456;28;20116;-47
2023/07/21 09:44:49;;;;;;;0.00;0.00;;;;;;;23.05;87.46;101054.50;5031098;28;20029;-45
2023/07/21 09:47:16;;;;;;;0.00;0.00;;;;;;;22.97;89.57;101053.84;5030386;28;20037;-45
2023/07/21 09:49:41;;;;;;;0.00;0.00;;;;;;;22.90;92.15;101047.72;5031400;28;20115;-48
2023/07/21 09:52:08;;;;;;;0.00;0.00;;;;;;;22.84;94.18;101043.28;5029949;28;20084;-47
2023/07/21 09:54:34;;;;;;;0.00;0.00;;;;;;;22.64;94.04;101045.78;5046609;28;20021;-47
2023/07/21 09:57:01;;;;;;;0.00;0.00;;;;;;;22.34;98.74;101052.59;5031439;28;20055;-46
2023/07/21 09:59:28;;;;;;;0.00;0.00;;;;;;;22.47;98.70;101034.91;5031773;28;20043;-47
2023/07/21 10:01:53;;;;;;;0.00;0.00;;;;;;;22.87;98.50;101045.50;5031082;28;20314;-47
2023/07/21 10:04:19;;;;;;;0.00;0.00;;;;;;;22.97;94.96;101050.28;5031147;28;20057;-48
2023/07/21 10:06:44;;;;;;;0.00;0.00;;;;;;;22.74;95.38;101048.66;5030744;28;20049;-48
2023/07/21 10:09:10;;;;;;;0.00;0.00;;;;;;;22.30;97.43;101048.69;5029608;28;20021;-50
2023/07/21 10:11:35;;;;;;;0.00;0.00;;;;;;;21.97;98.65;101058.66;5030741;28;20100;-47
2023/07/21 10:14:01;;;;;;;0.00;0.00;;;;;;;21.68;100.00;101052.47;5028632;28;20520;-46
2023/07/21 10:16:28;;;;;;;0.00;0.00;;;;;;;21.42;100.00;101057.53;5030470;28;20128;-46
2023/07/21 10:19:12;;;;;;;0.00;0.00;;;;;;;21.07;100.00;101057.75;5030934;28;20396;-48
2023/07/21 10:21:48;;;;;;;0.00;0.00;;;;;;;20.54;100.00;101075.34;5031422;28;20030;-45
2023/07/21 10:24:24;;;;;;;0.00;0.00;;;;;;;20.35;100.00;101078.22;5030663;28;20025;-47
2023/07/21 10:26:55;;;;;;;0.00;0.00;;;;;;;20.29;100.00;101076.41;5029204;28;20040;-48
2023/07/21 10:29:20;;;;;;;0.00;0.00;;;;;;;20.27;100.00;101078.56;5030962;28;20100;-45
2023/07/21 10:31:56;;;;;;;0.00;0.00;;;;;;;20.32;100.00;101080.56;5030471;28;20085;-46
2023/07/21 10:34:40;;;;;;;0.00;0.00;;;;;;;20.47;100.00;101080.91;5030581;28;20025;-48
2023/07/21 10:37:07;;;;;;;0.00;0.00;;;;;;;20.50;100.00;101071.38;5030505;28;20025;-47
2023/07/21 10:39:37;;;;;;;0.00;0.00;;;;;;;20.74;100.00;101081.19;5030952;28;20472;-47
2023/07/21 10:42:07;;;;;;;0.00;0.00;;;;;;;21.27;100.00;101079.16;5030640;28;20036;-44
2023/07/21 10:44:35;;;;;;;0.00;0.00;;;;;;;21.88;100.00;101079.31;5030809;28;20026;-47
2023/07/21 10:47:00;;;;;;;0.00;0.00;;;;;;;22.39;100.00;101077.31;5030854;28;20486;-48
2023/07/21 10:49:26;;;;;;;0.00;0.00;;;;;;;22.51;100.00;101077.19;5030937;28;20105;-49
2023/07/21 10:51:51;;;;;;;0.00;0.00;;;;;;;22.50;100.00;101079.09;5030567;28;20128;-47
2023/07/21 10:54:17;;;;;;;0.00;0.00;;;;;;;22.09;100.00;101081.28;5030757;28;20498;-46
2023/07/21 10:56:45;;;;;;;0.00;0.00;;;;;;;21.51;100.00;101085.31;5028922;28;20518;-47
2023/07/21 10:59:12;;;;;;;0.00;0.00;;;;;;;21.24;100.00;101099.63;5030574;28;20462;-46
2023/07/21 11:01:50;;;;;;;0.00;0.00;;;;;;;21.02;100.00;101098.69;5030388;28;20034;-45
2023/07/21 11:04:20;;;;;;;0.00;0.00;;;;;;;20.52;100.00;101085.66;5029468;28;20025;-45
2023/07/21 11:06:47;;;;;;;0.00;0.00;;;;;;;20.37;100.00;101086.97;5030609;28;20030;-46
2023/07/21 11:09:13;;;;;;;0.00;0.00;;;;;;;20.28;100.00;101096.63;5029349;28;20029;-45
2023/07/21 11:11:43;;;;;;;0.00;0.00;;;;;;;20.49;100.00;101103.38;5029901;28;20057;-44
2023/07/21 11:14:13;;;;;;;0.00;0.00;;;;;;;20.51;100.00;101105.84;5030180;28;20060;-47
2023/07/21 11:16:57;;;;;;;0.00;0.00;;;;;;;20.66;100.00;101103.47;5045614;28;20025;-48